Weather at Rabi Island Airport

Public forecast

Using degrees Celsius for public forecast. Weather courtesy of forecast.io.

Closest aviation weather report (METAR) to Rabi Island Airport

Report is more than 6 hours old.

Closest report is Matei Airport, 12.7 nm (23.5 km) SE. Retrieved 2022/09/16 23:00 UTC (13 days ago):

NFNM 162300Z 08009KT 9999 FEW018TCU SCT048 29/24 Q1015

Closest aviation forecast (TAF) to Rabi Island Airport

Forecast is more than 12 hours old.

Closest forecast is Nausori International Airport, 121.7 nm (225.4 km) SW. Retrieved 2022/09/17 18:00 UTC (13 days ago):

TAF NFNA 171701Z 1718/1818 13005KT 9999 FEW012 BKN045 PROB30 TEMPO 1800/1809 5000 SHRA BKN015